North Chelmsford, Massachusetts
Current Conditions -  °F | °C
As of 1:54 AM on Thursday 23 Oct 2014 (Local Time) from KASH Reporting Station
Heavy Rain Heavy Rain  
Wind Chill: 45°   Ceiling: 1500
Heat Index: 48°   Visibility: 1.2mi
Dew Point: 46°   Wind: 8mph
Humidity: 93%   Direction: 350°N
Pressure: 29.85"   Gusts: NA
Location:  42.64°N, 71.38°W
Report Text: KASH 230554Z 35007KT 1 1/4SM +RA BR FEW002 BKN015 OVC020 09/08 A2985 RMK AO2 LTG DSNT S P0000 $
Loading
Personal Weather Stations






























Interactive Weather Map
Tropical Storm Tracking
New forecast layout! Learn more

10-Day Weather Forecast

Advertisements
Track Severe Weather on mobile